Time;durP1;ratioP1;P1;durP2;ratioP2;P2;SDS_P1;SDS_P2;PMS_P1;PMS_P2;Temp;Humidity;BMP_temperature;BMP_pressure;BME280_temperature;BME280_humidity;BME280_pressure;Samples;Min_cycle;Max_cycle;Signal;HPM_P1;HPM_P2
2022/08/14 00:01:58;;;;;;;;;;;;;;;22.75;51.49;99285.75;4421336;32;31982;-81
2022/08/14 00:04:31;;;;;;;;;;;;;;;22.72;51.59;99286.06;4424487;32;32874;-81
2022/08/14 00:07:09;;;;;;;;;;;;;;;22.31;52.71;99287.56;4437329;32;35057;-81
2022/08/14 00:09:37;;;;;;;;;;;;;;;22.61;51.81;99280.09;4436579;32;33959;-81
2022/08/14 00:12:25;;;;;;;;;;;;;;;22.48;52.33;99281.34;4432274;32;33450;-81
2022/08/14 00:15:15;;;;;;;;;;;;;;;21.95;54.04;99276.78;4423355;32;34221;-81
2022/08/14 00:17:43;;;;;;;;;;;;;;;21.98;53.85;99279.19;4417080;32;33266;-81
2022/08/14 00:20:15;;;;;;;;;;;;;;;22.15;53.47;99282.91;4408944;32;33222;-81
2022/08/14 00:22:52;;;;;;;;;;;;;;;22.21;53.31;99278.75;4400064;32;32496;-80
2022/08/14 00:25:24;;;;;;;;;;;;;;;22.35;52.71;99277.34;4412669;32;33983;-81
2022/08/14 00:28:09;;;;;;;;;;;;;;;22.13;53.11;99279.53;4431611;32;34867;-81
2022/08/14 00:30:41;;;;;;;;;;;;;;;22.15;53.11;99274.84;4413660;32;33431;-81
2022/08/14 00:33:09;;;;;;;;;;;;;;;22.09;53.26;99270.03;4435218;32;33402;-81
2022/08/14 00:35:46;;;;;;;;;;;;;;;22.36;52.62;99268.28;4404705;32;34243;-81
2022/08/14 00:38:33;;;;;;;;;;;;;;;22.17;53.33;99271.97;4424874;32;33347;-80
2022/08/14 00:41:03;;;;;;;;;;;;;;;21.90;54.05;99265.66;4435141;32;34438;-81
2022/08/14 00:43:31;;;;;;;;;;;;;;;21.89;54.00;99268.50;4437194;32;33385;-81
2022/08/14 00:46:06;;;;;;;;;;;;;;;22.06;53.23;99262.28;4432397;32;33249;-81
2022/08/14 00:48:49;;;;;;;;;;;;;;;22.05;53.28;99268.66;4426986;32;34409;-81
2022/08/14 00:51:20;;;;;;;;;;;;;;;21.99;53.60;99259.38;4426111;32;33757;-81
2022/08/14 00:53:49;;;;;;;;;;;;;;;22.00;53.46;99262.91;4425360;32;34111;-81
2022/08/14 00:56:20;;;;;;;;;;;;;;;21.77;54.32;99258.97;4425644;32;33861;-81
2022/08/14 00:58:48;;;;;;;;;;;;;;;21.90;53.72;99262.97;4412457;32;34153;-81
2022/08/14 01:01:17;;;;;;;;;;;;;;;21.89;53.87;99261.28;4412780;32;33434;-81
2022/08/14 01:03:45;;;;;;;;;;;;;;;22.01;53.43;99264.59;4413139;32;33116;-81
2022/08/14 01:06:20;;;;;;;;;;;;;;;22.09;53.00;99264.66;4411889;32;33749;-81
2022/08/14 01:08:49;;;;;;;;;;;;;;;21.91;53.97;99267.34;4410475;32;33941;-81
2022/08/14 01:11:26;;;;;;;;;;;;;;;21.80;54.17;99258.66;4424952;32;34028;-81
2022/08/14 01:14:02;;;;;;;;;;;;;;;21.79;54.07;99267.69;4413570;32;31920;-81
2022/08/14 01:16:50;;;;;;;;;;;;;;;21.70;54.37;99269.47;4439384;32;33762;-81
2022/08/14 01:22:08;;;;;;;;;;;;;;;21.43;55.12;99275.69;4427309;32;34107;-81
2022/08/14 01:24:40;;;;;;;;;;;;;;;21.38;55.44;99276.16;4432043;32;33189;-81
2022/08/14 01:27:16;;;;;;;;;;;;;;;21.55;54.86;99270.97;4422590;32;34871;-80
2022/08/14 01:29:45;;;;;;;;;;;;;;;21.46;55.09;99270.03;4415154;32;33810;-81
2022/08/14 01:32:32;;;;;;;;;;;;;;;21.63;54.45;99268.38;4425856;32;33878;-81
2022/08/14 01:35:07;;;;;;;;;;;;;;;21.35;55.38;99275.59;4421548;32;33977;-81
2022/08/14 01:37:57;;;;;;;;;;;;;;;21.50;54.79;99273.25;4418642;32;33467;-81
2022/08/14 01:40:25;;;;;;;;;;;;;;;21.56;54.57;99278.03;4418631;32;33322;-81
2022/08/14 01:43:15;;;;;;;;;;;;;;;21.59;54.55;99277.72;4437899;32;33883;-80
2022/08/14 01:45:50;;;;;;;;;;;;;;;21.59;54.34;99281.25;4425490;32;32485;-81
2022/08/14 01:48:32;;;;;;;;;;;;;;;21.66;54.26;99292.25;4426110;32;34626;-81
2022/08/14 01:51:04;;;;;;;;;;;;;;;21.56;54.71;99281.56;4417409;32;33131;-80
2022/08/14 01:53:46;;;;;;;;;;;;;;;21.57;54.74;99279.72;4424365;32;33840;-81
2022/08/14 01:56:23;;;;;;;;;;;;;;;21.43;55.08;99281.06;4437513;32;33318;-81
2022/08/14 01:58:56;;;;;;;;;;;;;;;21.51;54.76;99274.94;4432470;32;33837;-81
2022/08/14 02:01:29;;;;;;;;;;;;;;;21.49;54.70;99277.78;4424068;32;33670;-81
2022/08/14 02:03:58;;;;;;;;;;;;;;;21.53;54.62;99273.81;4437768;32;34226;-80
2022/08/14 02:06:26;;;;;;;;;;;;;;;21.32;55.23;99279.44;4436176;32;33350;-80
2022/08/14 02:09:02;;;;;;;;;;;;;;;21.32;55.40;99275.91;4435465;32;32704;-81
2022/08/14 02:11:45;;;;;;;;;;;;;;;21.37;55.33;99279.84;4433252;32;33503;-81
2022/08/14 02:14:22;;;;;;;;;;;;;;;21.35;55.49;99283.66;4425634;32;34194;-81
2022/08/14 02:16:58;;;;;;;;;;;;;;;21.39;55.38;99282.34;4435026;32;33427;-81
2022/08/14 02:19:26;;;;;;;;;;;;;;;21.46;55.26;99286.16;4436033;32;33804;-81
2022/08/14 02:21:58;;;;;;;;;;;;;;;21.39;55.59;99277.00;4410416;32;35098;-81
2022/08/14 02:24:30;;;;;;;;;;;;;;;21.30;55.94;99288.59;4423758;32;33823;-81
2022/08/14 02:27:10;;;;;;;;;;;;;;;21.37;55.73;99282.53;4434312;32;32198;-81
2022/08/14 02:29:57;;;;;;;;;;;;;;;21.54;55.11;99269.28;4435214;32;33975;-81
2022/08/14 02:32:30;;;;;;;;;;;;;;;21.56;55.05;99276.19;4422940;32;33681;-81
2022/08/14 02:35:12;;;;;;;;;;;;;;;21.31;56.27;99276.87;4420453;32;33165;-80
2022/08/14 02:37:40;;;;;;;;;;;;;;;21.41;55.92;99273.16;4435184;32;32239;-81
2022/08/14 02:40:19;;;;;;;;;;;;;;;21.54;55.28;99270.13;4436095;32;33971;-81
2022/08/14 02:42:59;;;;;;;;;;;;;;;21.37;55.56;99276.31;4434283;32;34759;-80
2022/08/14 02:45:32;;;;;;;;;;;;;;;21.43;55.41;99279.22;4432013;32;33883;-81
2022/08/14 02:48:11;;;;;;;;;;;;;;;21.51;55.03;99278.50;4425440;32;32150;-81
2022/08/14 02:50:58;;;;;;;;;;;;;;;21.23;56.04;99280.28;4430256;32;34680;-81
2022/08/14 02:53:29;;;;;;;;;;;;;;;21.38;55.65;99281.50;4415986;32;34963;-81
2022/08/14 02:56:03;;;;;;;;;;;;;;;21.41;55.47;99280.34;4417510;32;34714;-81
2022/08/14 02:58:51;;;;;;;;;;;;;;;21.15;55.93;99289.06;4410434;32;32189;-81
2022/08/14 03:01:27;;;;;;;;;;;;;;;21.19;55.92;99285.09;4416270;32;34102;-81
2022/08/14 03:04:13;;;;;;;;;;;;;;;21.27;55.49;99288.88;4413019;32;35030;-81
2022/08/14 03:06:46;;;;;;;;;;;;;;;21.16;55.78;99288.06;4401958;32;32848;-81
2022/08/14 03:09:32;;;;;;;;;;;;;;;21.00;56.15;99289.69;4424644;32;33971;-81
2022/08/14 03:12:21;;;;;;;;;;;;;;;20.79;56.97;99284.50;4409287;32;33436;-80
2022/08/14 03:15:01;;;;;;;;;;;;;;;20.97;56.77;99288.97;4424777;32;35121;-81
2022/08/14 03:17:30;;;;;;;;;;;;;;;20.96;56.80;99289.97;4410570;32;34597;-81
2022/08/14 03:20:17;;;;;;;;;;;;;;;21.04;56.51;99294.63;4406996;32;33487;-81
2022/08/14 03:22:51;;;;;;;;;;;;;;;21.07;56.26;99291.63;4408902;32;34131;-81
2022/08/14 03:25:21;;;;;;;;;;;;;;;21.00;56.62;99293.22;4405329;32;32966;-81
2022/08/14 03:27:49;;;;;;;;;;;;;;;21.07;56.25;99294.31;4421620;32;34217;-81
2022/08/14 03:30:26;;;;;;;;;;;;;;;21.13;56.63;99285.69;4412315;32;32490;-81
2022/08/14 03:33:09;;;;;;;;;;;;;;;21.17;56.34;99289.78;4422932;32;33079;-81
2022/08/14 03:35:38;;;;;;;;;;;;;;;20.92;57.32;99295.78;4420273;32;34238;-81
2022/08/14 03:38:29;;;;;;;;;;;;;;;20.89;57.25;99296.09;4408812;32;32944;-81
2022/08/14 03:41:26;;;;;;;;;;;;;;;20.98;56.85;99295.19;4431295;32;33390;-81
2022/08/14 03:44:00;;;;;;;;;;;;;;;20.89;57.02;99293.41;4419234;32;34170;-81
2022/08/14 03:46:50;;;;;;;;;;;;;;;20.88;57.21;99283.63;4415671;32;32828;-82
2022/08/14 03:49:24;;;;;;;;;;;;;;;20.96;57.05;99286.44;4410071;32;33715;-81
2022/08/14 03:51:56;;;;;;;;;;;;;;;21.04;56.82;99286.56;4415816;32;32176;-81
2022/08/14 03:54:28;;;;;;;;;;;;;;;21.05;57.00;99288.25;4419230;32;34611;-81
2022/08/14 03:56:59;;;;;;;;;;;;;;;21.01;57.02;99294.91;4438197;32;33862;-81
2022/08/14 03:59:32;;;;;;;;;;;;;;;20.96;56.98;99286.44;4407904;32;34567;-81
2022/08/14 04:02:02;;;;;;;;;;;;;;;20.93;57.33;99292.09;4436572;32;33467;-81
2022/08/14 04:04:52;;;;;;;;;;;;;;;21.00;57.32;99287.84;4427471;32;33170;-81
2022/08/14 04:07:19;;;;;;;;;;;;;;;20.83;58.11;99293.97;4424527;32;33608;-80
2022/08/14 04:09:48;;;;;;;;;;;;;;;20.89;58.21;99291.56;4436448;32;33950;-81
2022/08/14 04:12:18;;;;;;;;;;;;;;;20.60;59.25;99291.59;4437651;32;33040;-81
2022/08/14 04:14:54;;;;;;;;;;;;;;;20.45;59.33;99293.84;4435391;32;33209;-81
2022/08/14 04:17:22;;;;;;;;;;;;;;;20.35;59.78;99298.34;4424362;32;33476;-81
2022/08/14 04:19:51;;;;;;;;;;;;;;;20.55;59.86;99296.53;4420346;32;32924;-81
2022/08/14 04:22:20;;;;;;;;;;;;;;;20.83;59.36;99302.84;4424620;32;32055;-81
2022/08/14 04:24:49;;;;;;;;;;;;;;;21.14;58.39;99300.81;4434019;32;34109;-81
2022/08/14 04:27:17;;;;;;;;;;;;;;;21.25;58.29;99302.44;4424871;32;34248;-82
2022/08/14 04:29:44;;;;;;;;;;;;;;;21.31;58.39;99303.72;4421804;32;33249;-81
2022/08/14 04:32:18;;;;;;;;;;;;;;;21.35;57.64;99300.59;4412501;32;32401;-81
2022/08/14 04:35:05;;;;;;;;;;;;;;;21.41;57.68;99307.22;4438402;32;32573;-81
2022/08/14 04:46:08;;;;;;;;;;;;;;;21.71;56.68;99314.16;4436083;32;33195;-81
2022/08/14 04:48:39;;;;;;;;;;;;;;;22.06;55.73;99310.66;4431129;32;34604;-82
2022/08/14 04:51:11;;;;;;;;;;;;;;;22.09;55.56;99299.63;4425850;32;34289;-81
2022/08/14 04:53:42;;;;;;;;;;;;;;;22.07;55.49;99298.91;4432607;32;33119;-81
2022/08/14 04:56:13;;;;;;;;;;;;;;;22.42;54.91;99302.66;4433819;32;32515;-81
2022/08/14 04:59:06;;;;;;;;;;;;;;;22.59;55.06;99298.25;4438331;32;33677;-81
2022/08/14 05:01:43;;;;;;;;;;;;;;;22.61;54.57;99291.72;4434271;32;34553;-81
2022/08/14 05:04:19;;;;;;;;;;;;;;;22.77;54.21;99296.38;4418585;32;33070;-81
2022/08/14 05:06:48;;;;;;;;;;;;;;;22.93;53.72;99301.03;4425620;32;34183;-81
2022/08/14 05:09:22;;;;;;;;;;;;;;;22.81;53.34;99296.91;4426067;32;33046;-81
2022/08/14 05:11:51;;;;;;;;;;;;;;;22.80;53.46;99300.59;4425237;32;34176;-81
2022/08/14 05:14:21;;;;;;;;;;;;;;;22.91;53.34;99308.44;4412995;32;32583;-81
2022/08/14 05:17:10;;;;;;;;;;;;;;;23.05;52.79;99299.78;4427404;32;33846;-81
2022/08/14 05:19:37;;;;;;;;;;;;;;;23.22;52.62;99306.97;4425484;32;35533;-81
2022/08/14 05:22:27;;;;;;;;;;;;;;;23.31;52.79;99299.78;4427347;32;32672;-81
2022/08/14 05:24:54;;;;;;;;;;;;;;;23.55;52.05;99304.44;4412591;32;33234;-81
2022/08/14 05:27:24;;;;;;;;;;;;;;;23.76;51.72;99304.88;4412762;32;34072;-81
2022/08/14 05:29:58;;;;;;;;;;;;;;;23.55;52.04;99295.47;4424718;32;33126;-81
2022/08/14 05:32:27;;;;;;;;;;;;;;;23.66;51.64;99298.78;4433874;32;32066;-81
2022/08/14 05:34:59;;;;;;;;;;;;;;;24.08;51.09;99292.50;4437173;32;33009;-81
2022/08/14 05:37:29;;;;;;;;;;;;;;;24.12;51.10;99299.25;4437387;32;33169;-81
2022/08/14 05:40:00;;;;;;;;;;;;;;;24.40;51.34;99296.25;4433948;32;33189;-81
2022/08/14 05:42:30;;;;;;;;;;;;;;;24.61;51.07;99303.88;4436157;32;34385;-81
2022/08/14 05:45:02;;;;;;;;;;;;;;;24.71;50.44;99294.56;4424500;32;32656;-81
2022/08/14 05:47:31;;;;;;;;;;;;;;;24.63;50.15;99294.56;4423088;32;33261;-81
2022/08/14 05:50:07;;;;;;;;;;;;;;;24.93;49.47;99303.00;4426418;32;34826;-81
2022/08/14 05:52:47;;;;;;;;;;;;;;;25.08;49.33;99295.91;4418193;32;33208;-81
2022/08/14 05:55:16;;;;;;;;;;;;;;;25.02;48.43;99294.72;4425447;32;31878;-81
2022/08/14 05:57:53;;;;;;;;;;;;;;;24.86;49.47;99304.69;4452942;32;33467;-81
2022/08/14 06:00:23;;;;;;;;;;;;;;;24.99;48.54;99296.91;4450419;32;33457;-81
2022/08/14 06:03:05;;;;;;;;;;;;;;;24.65;49.75;99306.06;4441643;32;34789;-81
2022/08/14 06:05:35;;;;;;;;;;;;;;;24.89;49.39;99301.66;4440288;32;31787;-81
2022/08/14 06:08:25;;;;;;;;;;;;;;;25.13;49.62;99298.09;4427346;32;32525;-81
2022/08/14 06:11:04;;;;;;;;;;;;;;;25.41;49.15;99295.81;4440080;32;32913;-81
2022/08/14 06:13:38;;;;;;;;;;;;;;;25.41;48.43;99293.13;4453061;32;33288;-81
2022/08/14 06:16:16;;;;;;;;;;;;;;;25.73;47.68;99290.28;4427405;32;31735;-81
2022/08/14 06:18:48;;;;;;;;;;;;;;;25.77;47.18;99288.91;4439726;32;34817;-82
2022/08/14 06:21:20;;;;;;;;;;;;;;;25.98;46.61;99287.47;4428104;32;34264;-81
2022/08/14 06:23:56;;;;;;;;;;;;;;;26.30;47.25;99281.84;4427391;32;33658;-81
2022/08/14 06:26:26;;;;;;;;;;;;;;;26.59;46.57;99287.53;4437177;32;33180;-81
2022/08/14 06:29:01;;;;;;;;;;;;;;;26.53;45.97;99275.56;4440006;32;34737;-81
2022/08/14 06:31:30;;;;;;;;;;;;;;;26.76;45.18;99278.25;4434706;32;32986;-81
2022/08/14 06:33:58;;;;;;;;;;;;;;;26.77;45.42;99278.06;4440023;32;34308;-82
2022/08/14 06:36:47;;;;;;;;;;;;;;;26.84;44.42;99277.34;4429112;32;32190;-81
2022/08/14 06:39:16;;;;;;;;;;;;;;;26.74;45.09;99283.84;4440067;32;34609;-81
2022/08/14 06:42:04;;;;;;;;;;;;;;;26.84;45.86;99282.75;4442169;32;34882;-81
2022/08/14 06:44:41;;;;;;;;;;;;;;;26.63;45.13;99280.72;4427944;32;33233;-81
2022/08/14 06:47:11;;;;;;;;;;;;;;;27.04;45.27;99276.59;4445690;32;33302;-81
2022/08/14 06:49:44;;;;;;;;;;;;;;;27.09;44.67;99270.66;4440315;32;34303;-81
2022/08/14 06:52:28;;;;;;;;;;;;;;;27.34;45.64;99271.22;4441191;32;33157;-81
2022/08/14 06:54:57;;;;;;;;;;;;;;;27.39;43.30;99267.94;4440073;32;34059;-81
2022/08/14 06:57:38;;;;;;;;;;;;;;;27.34;44.64;99267.66;4440764;32;33001;-81
2022/08/14 07:00:10;;;;;;;;;;;;;;;27.54;44.36;99264.22;4447382;32;33688;-81
2022/08/14 07:08:28;;;;;;;;;;;;;;;27.69;43.28;99256.03;4438992;32;32371;-81
2022/08/14 07:13:46;;;;;;;;;;;;;;;27.48;43.70;99264.09;4437164;32;33923;-81
2022/08/14 07:16:19;;;;;;;;;;;;;;;27.70;43.99;99257.72;4428920;32;32222;-81
2022/08/14 07:18:53;;;;;;;;;;;;;;;27.66;43.73;99264.56;4426976;32;31786;-81
2022/08/14 07:21:23;;;;;;;;;;;;;;;27.47;43.14;99260.56;4429157;32;33351;-81
2022/08/14 07:23:51;;;;;;;;;;;;;;;27.74;44.06;99259.06;4441218;32;34788;-81
2022/08/14 07:26:19;;;;;;;;;;;;;;;27.93;42.84;99252.16;4441717;32;34399;-81
2022/08/14 07:28:50;;;;;;;;;;;;;;;27.84;42.92;99260.63;4428700;32;32554;-81
2022/08/14 07:31:18;;;;;;;;;;;;;;;27.69;43.70;99250.62;4441731;32;34871;-81
2022/08/14 07:33:53;;;;;;;;;;;;;;;28.00;42.69;99260.38;4441640;32;34313;-81
2022/08/14 07:36:24;;;;;;;;;;;;;;;28.08;43.45;99258.38;4444626;32;34300;-81
2022/08/14 07:39:03;;;;;;;;;;;;;;;28.67;42.09;99249.13;4452330;32;33378;-81
2022/08/14 07:41:43;;;;;;;;;;;;;;;28.81;41.29;99248.19;4442783;32;34580;-81
2022/08/14 07:44:12;;;;;;;;;;;;;;;28.83;42.63;99254.28;4441973;32;35017;-81
2022/08/14 07:47:04;;;;;;;;;;;;;;;28.71;41.23;99250.41;4430990;32;33502;-81
2022/08/14 07:49:37;;;;;;;;;;;;;;;28.79;41.00;99244.84;4442319;32;33104;-81
2022/08/14 07:52:14;;;;;;;;;;;;;;;28.52;42.06;99246.50;4435284;32;34459;-81
2022/08/14 07:54:51;;;;;;;;;;;;;;;28.61;41.39;99244.47;4423266;32;33190;-81
2022/08/14 07:57:27;;;;;;;;;;;;;;;29.30;40.18;99244.56;4423616;32;32473;-81
2022/08/14 07:59:56;;;;;;;;;;;;;;;29.29;40.20;99236.59;4410790;32;34635;-81
2022/08/14 08:02:43;;;;;;;;;;;;;;;29.34;39.99;99239.53;4409356;32;33918;-81
2022/08/14 08:05:17;;;;;;;;;;;;;;;29.36;40.30;99232.03;4421534;32;34703;-81
2022/08/14 08:07:51;;;;;;;;;;;;;;;29.82;39.74;99236.84;4424183;32;33978;-81
2022/08/14 08:10:31;;;;;;;;;;;;;;;30.03;39.48;99238.56;4410917;32;33624;-82
2022/08/14 08:13:25;;;;;;;;;;;;;;;30.11;39.10;99232.94;4418982;32;33143;-81
2022/08/14 08:16:00;;;;;;;;;;;;;;;30.05;39.71;99236.47;4419309;32;33869;-81
2022/08/14 08:18:35;;;;;;;;;;;;;;;30.28;38.51;99239.69;4421483;32;34352;-81
2022/08/14 08:21:10;;;;;;;;;;;;;;;30.40;38.67;99230.91;4423464;32;33469;-81
2022/08/14 08:23:42;;;;;;;;;;;;;;;30.20;38.91;99237.19;4423272;32;34288;-81
2022/08/14 08:26:20;;;;;;;;;;;;;;;30.31;38.20;99233.81;4408699;32;33361;-81
2022/08/14 08:28:56;;;;;;;;;;;;;;;30.21;39.93;99227.94;4416595;32;33192;-81
2022/08/14 08:31:35;;;;;;;;;;;;;;;30.83;37.43;99225.88;4410937;32;32548;-82
2022/08/14 08:34:05;;;;;;;;;;;;;;;30.62;37.71;99224.16;4419730;32;34875;-81
2022/08/14 08:36:45;;;;;;;;;;;;;;;30.76;36.52;99223.16;4423088;32;35020;-81
2022/08/14 08:39:15;;;;;;;;;;;;;;;30.53;37.25;99225.47;4422565;32;33374;-81
2022/08/14 08:41:50;;;;;;;;;;;;;;;30.09;38.67;99229.56;4410743;32;33503;-81
2022/08/14 08:44:31;;;;;;;;;;;;;;;30.68;37.55;99227.97;4422080;32;34897;-81
2022/08/14 08:47:06;;;;;;;;;;;;;;;30.94;36.91;99221.66;4423243;32;34302;-81
2022/08/14 08:49:41;;;;;;;;;;;;;;;31.11;35.55;99220.16;4420017;32;34185;-81
2022/08/14 08:52:31;;;;;;;;;;;;;;;30.47;38.06;99229.84;4426472;32;35006;-82
2022/08/14 08:54:59;;;;;;;;;;;;;;;30.31;37.33;99228.38;4437913;32;34815;-81
2022/08/14 08:57:39;;;;;;;;;;;;;;;31.02;36.94;99216.00;4431169;32;35038;-82
2022/08/14 09:00:17;;;;;;;;;;;;;;;30.96;37.73;99214.13;4438320;32;34458;-81
2022/08/14 09:02:58;;;;;;;;;;;;;;;31.18;38.44;99214.69;4438498;32;33102;-81
2022/08/14 09:05:27;;;;;;;;;;;;;;;31.63;36.17;99210.13;4439525;32;33941;-82
2022/08/14 09:08:09;;;;;;;;;;;;;;;31.30;36.59;99202.94;4425867;32;33265;-81
2022/08/14 09:11:05;;;;;;;;;;;;;;;31.59;35.71;99206.16;4428791;32;35186;-82
2022/08/14 09:13:50;;;;;;;;;;;;;;;31.52;36.24;99208.06;4427014;32;32644;-81
2022/08/14 09:16:24;;;;;;;;;;;;;;;31.59;35.12;99211.62;4426176;32;33716;-82
2022/08/14 09:18:55;;;;;;;;;;;;;;;31.99;34.18;99205.94;4425856;32;32745;-82
2022/08/14 09:21:33;;;;;;;;;;;;;;;32.30;33.72;99199.66;4437934;32;33599;-82
2022/08/14 09:24:06;;;;;;;;;;;;;;;31.98;33.41;99198.81;4444641;32;33506;-82
2022/08/14 09:26:42;;;;;;;;;;;;;;;31.89;34.90;99194.69;4425402;32;33843;-81
2022/08/14 09:29:30;;;;;;;;;;;;;;;32.09;34.86;99193.50;4439416;32;35961;-81
2022/08/14 09:32:01;;;;;;;;;;;;;;;32.19;32.76;99187.56;4427479;32;34292;-82
2022/08/14 09:37:48;;;;;;;;;;;;;;;32.58;31.83;99183.66;4426988;32;34691;-81
2022/08/14 09:40:32;;;;;;;;;;;;;;;32.13;32.01;99181.06;4439271;32;35007;-82
2022/08/14 09:43:05;;;;;;;;;;;;;;;31.65;31.77;99186.19;4439132;32;34143;-82
2022/08/14 09:45:47;;;;;;;;;;;;;;;32.03;31.16;99185.34;4448567;32;32489;-82
2022/08/14 09:48:31;;;;;;;;;;;;;;;32.26;30.16;99185.59;4433487;32;34919;-81
2022/08/14 09:56:44;;;;;;;;;;;;;;;32.31;29.45;99166.62;4428893;32;31989;-81
2022/08/14 09:59:28;;;;;;;;;;;;;;;32.58;29.42;99166.44;4414039;32;33164;-81
2022/08/14 10:02:20;;;;;;;;;;;;;;;32.20;29.04;99164.63;4415723;32;35946;-81
2022/08/14 10:05:18;;;;;;;;;;;;;;;32.47;28.25;99158.94;4432725;32;34374;-82
2022/08/14 10:07:50;;;;;;;;;;;;;;;32.17;29.11;99170.53;4401073;32;32529;-82
2022/08/14 10:13:22;;;;;;;;;;;;;;;32.63;28.49;99166.59;4434766;32;33734;-82
2022/08/14 10:15:50;;;;;;;;;;;;;;;33.18;26.65;99155.69;4419662;32;33211;-82
2022/08/14 10:18:20;;;;;;;;;;;;;;;33.54;25.84;99154.00;4425188;32;33596;-82
2022/08/14 10:20:54;;;;;;;;;;;;;;;33.06;28.21;99158.38;4412639;32;33862;-82
2022/08/14 10:23:23;;;;;;;;;;;;;;;32.83;24.80;99163.66;4437332;32;34032;-82
2022/08/14 10:25:57;;;;;;;;;;;;;;;33.31;25.51;99155.53;4437640;32;34929;-82
2022/08/14 10:28:44;;;;;;;;;;;;;;;33.24;24.98;99160.25;4424412;32;33372;-82
2022/08/14 10:31:35;;;;;;;;;;;;;;;34.15;24.32;99150.16;4422327;32;33924;-82
2022/08/14 10:34:18;;;;;;;;;;;;;;;34.09;26.29;99151.94;4435635;32;32895;-82
2022/08/14 10:36:49;;;;;;;;;;;;;;;33.98;25.81;99149.16;4425116;32;33753;-82
2022/08/14 10:39:29;;;;;;;;;;;;;;;34.65;26.23;99138.75;4431729;32;34140;-82
2022/08/14 10:42:10;;;;;;;;;;;;;;;34.45;24.66;99143.75;4430985;32;34985;-82
2022/08/14 10:44:49;;;;;;;;;;;;;;;34.54;23.98;99147.84;4418496;32;34319;-82
2022/08/14 10:50:31;;;;;;;;;;;;;;;34.07;25.18;99145.00;4414625;32;33519;-82
2022/08/14 10:53:04;;;;;;;;;;;;;;;34.57;25.08;99147.37;4445875;32;34136;-82
2022/08/14 10:55:40;;;;;;;;;;;;;;;34.61;23.76;99137.56;4435809;32;35832;-83
2022/08/14 10:58:14;;;;;;;;;;;;;;;34.18;26.32;99138.72;4438098;32;34699;-82
2022/08/14 11:00:55;;;;;;;;;;;;;;;34.83;24.48;99135.03;4430083;32;33284;-82
2022/08/14 11:03:38;;;;;;;;;;;;;;;34.32;25.14;99131.94;4438262;32;34225;-82
2022/08/14 11:06:32;;;;;;;;;;;;;;;34.37;25.60;99129.34;4442061;32;34901;-82
2022/08/14 11:09:13;;;;;;;;;;;;;;;34.50;25.47;99130.19;4430659;32;34229;-82
2022/08/14 11:11:57;;;;;;;;;;;;;;;35.39;25.25;99128.84;4436409;32;34082;-82
2022/08/14 11:14:56;;;;;;;;;;;;;;;34.89;25.79;99123.94;4416230;32;32786;-82
2022/08/14 11:17:34;;;;;;;;;;;;;;;34.94;21.64;99125.13;4435967;32;33722;-82
2022/08/14 11:20:06;;;;;;;;;;;;;;;35.03;23.79;99124.53;4437741;32;34149;-82
2022/08/14 11:22:42;;;;;;;;;;;;;;;34.88;22.98;99119.53;4440982;32;33857;-82
2022/08/14 11:25:30;;;;;;;;;;;;;;;34.61;23.70;99115.63;4440531;32;34413;-82
2022/08/14 11:28:19;;;;;;;;;;;;;;;34.51;24.53;99104.44;4440991;32;35900;-82
2022/08/14 11:31:19;;;;;;;;;;;;;;;34.48;24.89;99104.94;4437057;32;35707;-82
2022/08/14 11:33:58;;;;;;;;;;;;;;;34.69;26.90;99101.56;4436375;32;33002;-84
2022/08/14 11:36:34;;;;;;;;;;;;;;;34.52;23.58;99095.16;4416646;32;33385;-82
2022/08/14 11:39:23;;;;;;;;;;;;;;;34.81;22.40;99093.31;4438985;32;33360;-82
2022/08/14 11:42:22;;;;;;;;;;;;;;;34.98;22.75;99093.41;4437607;32;33085;-81
2022/08/14 11:45:13;;;;;;;;;;;;;;;35.29;21.11;99087.47;4421787;32;33236;-82
2022/08/14 11:47:46;;;;;;;;;;;;;;;35.10;21.61;99084.09;4442355;32;33750;-82
2022/08/14 11:50:37;;;;;;;;;;;;;;;35.17;22.41;99078.44;4427562;32;34728;-82
2022/08/14 11:53:06;;;;;;;;;;;;;;;35.08;22.59;99082.66;4409955;32;34355;-82
2022/08/14 11:55:37;;;;;;;;;;;;;;;35.19;23.54;99079.03;4398454;32;32110;-82
2022/08/14 11:58:10;;;;;;;;;;;;;;;35.81;23.32;99065.38;4423732;32;32781;-82
2022/08/14 12:00:52;;;;;;;;;;;;;;;35.84;22.11;99064.03;4423476;32;34315;-82
2022/08/14 12:06:23;;;;;;;;;;;;;;;35.75;21.54;99054.53;4429311;32;33351;-82
2022/08/14 12:09:08;;;;;;;;;;;;;;;35.94;21.27;99055.13;4427526;32;34217;-82
2022/08/14 12:11:49;;;;;;;;;;;;;;;35.83;22.10;99056.87;4427543;32;35011;-82
2022/08/14 12:14:22;;;;;;;;;;;;;;;35.78;21.47;99051.31;4424705;32;32832;-82
2022/08/14 12:17:06;;;;;;;;;;;;;;;35.78;22.15;99049.38;4427692;32;33111;-82
2022/08/14 12:19:47;;;;;;;;;;;;;;;36.17;20.81;99052.22;4439576;32;34841;-82
2022/08/14 12:22:33;;;;;;;;;;;;;;;35.89;21.57;99061.38;4427276;32;34932;-82
2022/08/14 12:25:10;;;;;;;;;;;;;;;36.10;21.80;99038.66;4438426;32;34092;-83
2022/08/14 12:27:49;;;;;;;;;;;;;;;35.68;20.78;99048.37;4420871;32;32990;-82
2022/08/14 12:30:28;;;;;;;;;;;;;;;36.37;20.07;99040.72;4426547;32;33919;-82
2022/08/14 12:33:07;;;;;;;;;;;;;;;36.75;21.59;99030.75;4439429;32;34978;-82
2022/08/14 12:35:50;;;;;;;;;;;;;;;36.24;21.08;99035.56;4426573;32;34114;-82
2022/08/14 12:38:32;;;;;;;;;;;;;;;35.90;21.33;99033.66;4427210;32;33758;-82
2022/08/14 12:41:08;;;;;;;;;;;;;;;36.35;21.76;99027.19;4439400;32;34560;-82
2022/08/14 12:43:46;;;;;;;;;;;;;;;36.39;20.29;99028.34;4425962;32;33978;-82
2022/08/14 12:46:21;;;;;;;;;;;;;;;35.89;20.35;99033.87;4435924;32;34665;-82
2022/08/14 12:49:23;;;;;;;;;;;;;;;35.78;20.30;99037.56;4427411;32;34300;-82
2022/08/14 12:51:57;;;;;;;;;;;;;;;36.00;21.05;99024.78;4414252;32;33876;-82
2022/08/14 12:54:38;;;;;;;;;;;;;;;36.27;19.53;99024.87;4416920;32;34760;-82
2022/08/14 12:57:40;;;;;;;;;;;;;;;36.12;21.70;99024.66;4409127;32;34852;-82
2022/08/14 13:00:15;;;;;;;;;;;;;;;35.99;19.80;99014.00;4419223;32;32503;-82
2022/08/14 13:05:32;;;;;;;;;;;;;;;36.16;19.58;99012.91;4422284;32;33709;-82
2022/08/14 13:08:04;;;;;;;;;;;;;;;36.58;19.83;99014.34;4415223;32;33432;-82
2022/08/14 13:10:54;;;;;;;;;;;;;;;36.51;19.62;99003.53;4412876;32;33554;-82
2022/08/14 13:16:15;;;;;;;;;;;;;;;36.41;19.84;99014.34;4420463;32;33993;-82
2022/08/14 13:19:00;;;;;;;;;;;;;;;36.63;19.59;99006.16;4399748;32;32959;-82
2022/08/14 13:21:30;;;;;;;;;;;;;;;36.34;20.21;99003.56;4397602;32;33108;-82
2022/08/14 13:24:23;;;;;;;;;;;;;;;35.99;20.23;99001.13;4413046;32;34107;-82
2022/08/14 13:27:08;;;;;;;;;;;;;;;35.26;21.92;99007.53;4410168;32;33848;-82
2022/08/14 13:29:51;;;;;;;;;;;;;;;35.60;21.78;99011.19;4411485;32;34974;-82
2022/08/14 13:35:09;;;;;;;;;;;;;;;34.76;22.88;99011.78;4411288;32;34189;-82
2022/08/14 13:37:43;;;;;;;;;;;;;;;34.82;22.46;99013.53;4417381;32;34297;-82
2022/08/14 13:40:22;;;;;;;;;;;;;;;34.94;23.17;98998.94;4422588;32;32931;-82
2022/08/14 13:42:56;;;;;;;;;;;;;;;34.78;22.59;99009.63;4398167;32;31827;-82
2022/08/14 13:45:25;;;;;;;;;;;;;;;35.12;22.61;99002.34;4414378;32;34163;-82
2022/08/14 13:48:18;;;;;;;;;;;;;;;35.40;22.50;99004.22;4399178;32;33460;-82
2022/08/14 13:51:06;;;;;;;;;;;;;;;35.41;22.33;98992.16;4411703;32;33866;-82
2022/08/14 13:53:46;;;;;;;;;;;;;;;35.19;22.90;98988.50;4427899;32;33403;-82
2022/08/14 13:56:26;;;;;;;;;;;;;;;35.21;22.84;98986.31;4453305;32;35848;-82
2022/08/14 13:59:06;;;;;;;;;;;;;;;35.04;23.21;98983.56;4430877;32;33266;-83
2022/08/14 14:01:35;;;;;;;;;;;;;;;34.09;23.38;98975.78;4440728;32;32965;-82
2022/08/14 14:04:13;;;;;;;;;;;;;;;34.45;23.06;98982.03;4441237;32;34025;-81
2022/08/14 14:06:52;;;;;;;;;;;;;;;34.63;23.28;98977.25;4441248;32;34036;-82
2022/08/14 14:09:32;;;;;;;;;;;;;;;34.37;22.99;98969.53;4431225;32;33411;-82
2022/08/14 14:12:21;;;;;;;;;;;;;;;34.12;24.98;98975.28;4426957;32;34212;-81
2022/08/14 14:15:22;;;;;;;;;;;;;;;33.95;25.38;98968.91;4442867;32;32991;-82
2022/08/14 14:18:02;;;;;;;;;;;;;;;34.36;25.06;98967.84;4441828;32;33940;-82
2022/08/14 14:20:53;;;;;;;;;;;;;;;34.90;23.73;98955.56;4450165;32;34435;-82
2022/08/14 14:28:54;;;;;;;;;;;;;;;33.75;24.54;98961.81;4441633;32;33959;-82
2022/08/14 14:31:35;;;;;;;;;;;;;;;34.08;24.03;98963.13;4441486;32;34387;-82